createdAt,value
2022-10-16T00:02:21.454Z,0.75
2022-10-16T00:04:51.823Z,0.90
2022-10-16T00:07:19.876Z,0.77
2022-10-16T00:09:53.351Z,0.82
2022-10-16T00:12:25.323Z,0.85
2022-10-16T00:14:54.366Z,0.82
2022-10-16T00:17:22.209Z,0.80
2022-10-16T00:19:51.229Z,1.05
2022-10-16T00:22:18.931Z,0.85
2022-10-16T00:24:47.062Z,1.00
2022-10-16T00:27:20.815Z,0.82
2022-10-16T00:29:55.664Z,0.80
2022-10-16T00:32:24.128Z,0.70
2022-10-16T00:35:02.864Z,0.70
2022-10-16T00:37:30.939Z,0.95
2022-10-16T00:40:09.911Z,0.73
2022-10-16T00:42:38.055Z,0.70
2022-10-16T00:45:11.787Z,1.00
2022-10-16T00:47:42.835Z,0.63
2022-10-16T00:50:15.523Z,0.50
2022-10-16T00:52:51.772Z,1.00
2022-10-16T00:55:20.612Z,1.08
2022-10-16T00:57:50.008Z,1.45
2022-10-16T01:00:23.035Z,1.35
2022-10-16T01:03:03.753Z,0.73
2022-10-16T01:05:49.555Z,0.90
2022-10-16T01:08:24.080Z,0.60
2022-10-16T01:10:59.602Z,0.82
2022-10-16T01:13:33.994Z,0.50
2022-10-16T01:16:08.862Z,0.40
2022-10-16T01:18:41.451Z,0.40
2022-10-16T01:21:15.394Z,0.60
2022-10-16T01:23:58.687Z,0.38
2022-10-16T01:26:38.351Z,0.47
2022-10-16T01:29:23.104Z,0.65
2022-10-16T01:31:59.412Z,0.47
2022-10-16T01:34:37.462Z,0.20
2022-10-16T01:37:13.815Z,0.60
2022-10-16T01:39:47.218Z,0.30
2022-10-16T01:42:19.883Z,0.55
2022-10-16T01:44:51.420Z,0.50
2022-10-16T01:47:34.714Z,0.40
2022-10-16T01:50:06.756Z,0.30
2022-10-16T01:52:45.631Z,0.40
2022-10-16T01:55:16.655Z,0.30
2022-10-16T01:57:49.899Z,0.35
2022-10-16T02:00:23.733Z,0.30
2022-10-16T02:02:57.212Z,0.50
2022-10-16T02:05:30.506Z,0.50
2022-10-16T02:08:00.511Z,0.30
2022-10-16T02:10:32.611Z,0.30
2022-10-16T02:13:05.810Z,0.52
2022-10-16T02:15:37.535Z,0.57
2022-10-16T02:18:09.517Z,0.20
2022-10-16T02:20:50.029Z,0.50
2022-10-16T02:23:29.111Z,0.40
2022-10-16T02:26:00.897Z,0.40
2022-10-16T02:28:39.209Z,0.20
2022-10-16T02:31:12.267Z,0.38
2022-10-16T02:33:42.743Z,0.50
2022-10-16T02:36:11.687Z,0.35
2022-10-16T02:38:41.668Z,0.32
2022-10-16T02:41:09.910Z,0.32
2022-10-16T02:43:37.775Z,0.40
2022-10-16T02:46:07.221Z,0.15
2022-10-16T02:48:41.061Z,0.28
2022-10-16T02:51:16.326Z,0.25
2022-10-16T02:53:51.567Z,0.25
2022-10-16T02:58:55.702Z,0.20
2022-10-16T03:01:28.027Z,0.32
2022-10-16T03:04:00.236Z,0.40
2022-10-16T03:06:37.305Z,0.30
2022-10-16T03:09:05.110Z,0.60
2022-10-16T03:11:32.889Z,0.40
2022-10-16T03:14:03.013Z,0.30
2022-10-16T03:16:30.955Z,0.50
2022-10-16T03:19:02.854Z,0.40
2022-10-16T03:21:31.028Z,0.75
2022-10-16T03:24:00.803Z,0.47
2022-10-16T03:26:28.568Z,0.45
2022-10-16T03:28:56.491Z,0.50
2022-10-16T03:31:24.494Z,0.60
2022-10-16T03:33:54.821Z,1.10
2022-10-16T03:36:28.488Z,0.65
2022-10-16T03:39:02.404Z,0.47
2022-10-16T03:41:30.287Z,0.40
2022-10-16T03:43:58.409Z,0.60
2022-10-16T03:46:28.571Z,0.55
2022-10-16T03:48:58.089Z,0.50
2022-10-16T03:51:33.002Z,0.38
2022-10-16T03:54:00.858Z,0.70
2022-10-16T03:56:31.949Z,0.65
2022-10-16T03:59:21.155Z,0.40
2022-10-16T04:01:48.953Z,0.30
2022-10-16T04:04:19.467Z,0.50
2022-10-16T04:06:58.939Z,0.47
2022-10-16T04:09:28.942Z,0.45
2022-10-16T04:12:08.065Z,0.50
2022-10-16T04:14:36.994Z,0.50
2022-10-16T04:17:07.165Z,0.40
2022-10-16T04:19:37.237Z,0.60
2022-10-16T04:22:23.702Z,0.35
2022-10-16T04:24:55.086Z,0.38
2022-10-16T04:27:22.998Z,0.30
2022-10-16T04:29:50.901Z,0.20
2022-10-16T04:32:32.698Z,0.20
2022-10-16T04:35:00.826Z,0.30
2022-10-16T04:37:29.931Z,0.50
2022-10-16T04:40:04.280Z,0.40
2022-10-16T04:42:32.031Z,0.50
2022-10-16T04:44:59.925Z,0.38
2022-10-16T04:47:28.117Z,0.60
2022-10-16T04:50:03.274Z,0.30
2022-10-16T04:55:10.901Z,0.30
2022-10-16T04:57:38.737Z,0.30
2022-10-16T05:00:07.686Z,0.40
2022-10-16T05:02:38.847Z,0.40
2022-10-16T05:05:08.693Z,0.40
2022-10-16T05:07:50.572Z,0.40
2022-10-16T05:10:21.558Z,0.47
2022-10-16T05:12:58.509Z,0.50
2022-10-16T05:15:28.077Z,0.60
2022-10-16T05:18:00.837Z,0.60
2022-10-16T05:20:29.522Z,0.75
2022-10-16T05:22:58.858Z,0.75
2022-10-16T05:25:28.854Z,0.60
2022-10-16T05:28:04.224Z,0.60
2022-10-16T05:30:46.054Z,0.47
2022-10-16T05:33:25.934Z,0.30
2022-10-16T05:35:55.078Z,0.43
2022-10-16T05:38:38.233Z,0.35
2022-10-16T05:41:08.093Z,0.63
2022-10-16T05:43:38.317Z,0.40
2022-10-16T05:46:07.611Z,0.40
2022-10-16T05:48:41.780Z,0.38
2022-10-16T05:51:13.612Z,0.40
2022-10-16T05:56:15.769Z,0.30
2022-10-16T05:58:45.838Z,0.35
2022-10-16T06:01:19.046Z,0.45
2022-10-16T06:03:47.063Z,0.40
2022-10-16T06:06:21.200Z,0.50
2022-10-16T06:08:51.299Z,0.52
2022-10-16T06:11:20.994Z,0.40
2022-10-16T06:13:51.661Z,0.35
2022-10-16T06:16:19.900Z,0.47
2022-10-16T06:18:51.252Z,0.32
2022-10-16T06:21:21.499Z,0.30
2022-10-16T06:23:50.795Z,0.30
2022-10-16T06:29:34.017Z,0.80
2022-10-16T06:32:01.889Z,0.55
2022-10-16T06:34:30.042Z,0.43
2022-10-16T06:37:09.830Z,0.50
2022-10-16T06:39:42.493Z,0.35
2022-10-16T06:42:15.268Z,0.50
2022-10-16T06:44:45.458Z,0.20
2022-10-16T06:47:15.980Z,0.38
2022-10-16T06:49:43.924Z,0.30
2022-10-16T06:52:11.676Z,0.40
2022-10-16T06:54:42.599Z,0.20
2022-10-16T06:57:18.382Z,0.20
2022-10-16T06:59:54.567Z,0.30
2022-10-16T07:02:25.681Z,0.20
2022-10-16T07:04:53.746Z,0.20
2022-10-16T07:10:10.158Z,0.40
2022-10-16T07:12:46.093Z,0.30
2022-10-16T07:15:13.969Z,0.30
2022-10-16T07:17:41.829Z,0.30
2022-10-16T07:20:12.190Z,0.20
2022-10-16T07:22:56.182Z,0.20
2022-10-16T07:25:23.983Z,0.20
2022-10-16T07:27:57.040Z,0.20
2022-10-16T07:30:39.299Z,0.22
2022-10-16T07:33:14.311Z,0.17
2022-10-16T07:35:52.639Z,0.25
2022-10-16T07:38:21.750Z,0.28
2022-10-16T07:40:49.798Z,0.30
2022-10-16T07:43:21.787Z,0.40
2022-10-16T07:48:24.610Z,0.30
2022-10-16T07:51:01.952Z,0.20
2022-10-16T07:53:31.131Z,0.20
2022-10-16T07:56:03.090Z,0.13
2022-10-16T07:58:32.601Z,0.10
2022-10-16T08:01:14.295Z,0.38
2022-10-16T08:03:44.170Z,0.30
2022-10-16T08:06:12.067Z,0.20
2022-10-16T08:08:40.310Z,0.17
2022-10-16T08:11:27.122Z,0.30
2022-10-16T08:13:59.029Z,0.20
2022-10-16T08:16:30.658Z,0.40
2022-10-16T08:18:58.479Z,0.28
2022-10-16T08:21:40.482Z,0.20
2022-10-16T08:24:09.645Z,0.20
2022-10-16T08:26:44.714Z,0.20
2022-10-16T08:29:15.882Z,0.20
2022-10-16T08:34:39.297Z,0.10
2022-10-16T08:37:22.568Z,0.30
2022-10-16T08:39:57.590Z,0.43
2022-10-16T08:42:46.455Z,0.20
2022-10-16T08:45:47.697Z,0.20
2022-10-16T08:48:24.983Z,0.40
2022-10-16T08:50:54.151Z,0.30
2022-10-16T08:53:54.770Z,0.28
2022-10-16T08:56:23.911Z,0.43
2022-10-16T08:58:56.523Z,0.43
2022-10-16T09:01:41.188Z,0.28
2022-10-16T09:04:49.342Z,0.30
2022-10-16T09:07:28.785Z,0.22
2022-10-16T09:10:16.179Z,0.25
2022-10-16T09:12:54.882Z,0.28
2022-10-16T09:15:37.571Z,0.30
2022-10-16T09:18:28.657Z,0.30
2022-10-16T09:21:10.490Z,0.30
2022-10-16T09:23:42.321Z,0.17
2022-10-16T09:26:29.660Z,0.50
2022-10-16T09:29:00.367Z,0.20
2022-10-16T09:31:28.332Z,0.38
2022-10-16T09:34:09.194Z,0.20
2022-10-16T09:36:46.950Z,0.47
2022-10-16T09:39:14.976Z,0.30
2022-10-16T09:41:46.102Z,0.57
2022-10-16T09:44:24.489Z,0.30
2022-10-16T09:47:05.794Z,0.28
2022-10-16T09:49:35.159Z,0.25
2022-10-16T09:52:15.093Z,0.35
2022-10-16T09:54:52.460Z,0.43
2022-10-16T09:57:20.984Z,0.20
2022-10-16T09:59:50.350Z,0.30
2022-10-16T10:02:39.225Z,0.22
2022-10-16T10:05:27.590Z,0.20
2022-10-16T10:08:23.503Z,0.20
2022-10-16T10:10:51.446Z,0.40
2022-10-16T10:13:21.987Z,0.47
2022-10-16T10:16:02.080Z,0.25
2022-10-16T10:18:33.263Z,0.20
2022-10-16T10:21:06.879Z,0.55
2022-10-16T10:23:59.058Z,0.50
2022-10-16T10:26:41.696Z,0.30
2022-10-16T10:29:25.083Z,0.30
2022-10-16T10:32:14.359Z,0.25
2022-10-16T10:35:10.863Z,0.30
2022-10-16T10:38:04.195Z,0.20
2022-10-16T10:40:46.344Z,0.30
2022-10-16T10:43:45.381Z,0.68
2022-10-16T10:46:24.061Z,0.15
2022-10-16T10:49:10.877Z,0.50
2022-10-16T10:52:02.844Z,0.45
2022-10-16T10:54:48.900Z,0.20
2022-10-16T10:57:35.000Z,0.35
2022-10-16T11:00:21.411Z,0.20
2022-10-16T11:05:57.219Z,0.20
2022-10-16T11:08:30.591Z,0.10
2022-10-16T11:11:07.988Z,0.20
2022-10-16T11:13:57.452Z,0.10
2022-10-16T11:16:40.969Z,0.10
2022-10-16T11:19:24.330Z,0.27
2022-10-16T11:22:04.930Z,0.10
2022-10-16T11:24:44.711Z,0.20
2022-10-16T11:27:18.843Z,0.17
2022-10-16T11:32:34.933Z,0.40
2022-10-16T11:35:10.052Z,0.28
2022-10-16T11:37:43.178Z,0.22
2022-10-16T11:40:23.535Z,0.10
2022-10-16T11:42:56.986Z,0.82
2022-10-16T11:45:40.679Z,0.28
2022-10-16T11:48:21.064Z,0.25
2022-10-16T11:50:55.266Z,0.32
2022-10-16T11:53:40.733Z,0.22
2022-10-16T11:56:08.737Z,0.30
2022-10-16T11:58:43.578Z,0.38
2022-10-16T12:04:16.930Z,0.25
2022-10-16T12:06:52.083Z,0.20
2022-10-16T12:09:27.019Z,0.30
2022-10-16T12:11:55.737Z,0.20
2022-10-16T12:14:51.745Z,0.32
2022-10-16T12:17:46.445Z,0.28
2022-10-16T12:20:31.473Z,0.10
2022-10-16T12:23:01.866Z,0.22
2022-10-16T12:25:35.388Z,0.40
2022-10-16T12:28:06.398Z,0.10
2022-10-16T12:30:38.763Z,0.25
2022-10-16T12:33:23.220Z,0.30
2022-10-16T12:35:51.720Z,0.38
2022-10-16T12:38:24.081Z,0.20
2022-10-16T12:41:00.966Z,0.10
2022-10-16T12:43:38.957Z,0.15
2022-10-16T12:46:35.527Z,0.17
2022-10-16T12:49:36.375Z,0.10
2022-10-16T12:52:05.433Z,0.30
2022-10-16T12:54:38.146Z,0.10
2022-10-16T12:57:20.752Z,0.20
2022-10-16T12:59:57.617Z,0.40
2022-10-16T13:03:10.329Z,0.43
2022-10-16T13:06:00.546Z,0.10
2022-10-16T13:08:55.564Z,0.20
2022-10-16T13:11:42.159Z,0.05
2022-10-16T13:14:29.935Z,0.30
2022-10-16T13:17:13.611Z,0.30
2022-10-16T13:19:51.031Z,0.20
2022-10-16T13:22:34.189Z,0.20
2022-10-16T13:25:18.625Z,0.20
2022-10-16T13:27:54.623Z,0.13
2022-10-16T13:30:28.273Z,0.30
2022-10-16T13:33:04.678Z,0.10
2022-10-16T13:35:34.449Z,0.10
2022-10-16T13:38:13.659Z,0.20
2022-10-16T13:40:52.011Z,0.30
2022-10-16T13:43:21.793Z,0.35
2022-10-16T13:45:58.418Z,0.10
2022-10-16T13:48:26.308Z,0.20
2022-10-16T13:51:01.992Z,0.10
2022-10-16T13:53:32.942Z,0.55
2022-10-16T13:56:05.191Z,0.25
2022-10-16T13:58:33.160Z,0.22
2022-10-16T14:01:03.214Z,0.20
2022-10-16T14:03:32.575Z,0.30
2022-10-16T14:06:02.527Z,0.00
2022-10-16T14:08:46.978Z,0.17
2022-10-16T14:11:47.518Z,0.20
2022-10-16T14:14:25.360Z,0.20
2022-10-16T14:16:56.059Z,0.10
2022-10-16T14:19:30.191Z,0.25
2022-10-16T14:21:59.356Z,0.20
2022-10-16T14:24:48.625Z,0.20
2022-10-16T14:27:39.221Z,0.35
2022-10-16T14:30:24.792Z,0.10
2022-10-16T14:33:01.064Z,0.20
2022-10-16T14:35:40.473Z,0.32
2022-10-16T14:38:20.716Z,0.10
2022-10-16T14:41:01.445Z,0.25
2022-10-16T14:43:35.879Z,0.30
2022-10-16T14:46:05.975Z,0.20
2022-10-16T14:48:37.625Z,0.30
2022-10-16T14:51:07.264Z,0.15
2022-10-16T14:53:35.514Z,0.13
2022-10-16T14:56:10.779Z,0.10
2022-10-16T14:58:42.514Z,0.40
2022-10-16T15:01:12.472Z,0.20
2022-10-16T15:03:40.841Z,0.20
2022-10-16T15:06:14.926Z,0.20
2022-10-16T15:08:45.321Z,0.20
2022-10-16T15:11:35.521Z,0.20
2022-10-16T15:14:04.483Z,0.38
2022-10-16T15:16:37.723Z,0.52
2022-10-16T15:19:06.607Z,0.30
2022-10-16T15:21:37.530Z,0.20
2022-10-16T15:24:10.949Z,0.30
2022-10-16T15:26:40.896Z,0.20
2022-10-16T15:29:08.978Z,0.30
2022-10-16T15:31:45.674Z,0.10
2022-10-16T15:34:14.170Z,0.13
2022-10-16T15:36:42.511Z,0.13
2022-10-16T15:39:15.496Z,0.10
2022-10-16T15:41:46.257Z,0.20
2022-10-16T15:44:14.719Z,0.30
2022-10-16T15:47:15.473Z,0.47
2022-10-16T15:49:43.367Z,0.20
2022-10-16T15:52:11.315Z,0.30
2022-10-16T15:54:40.582Z,0.22
2022-10-16T15:57:09.710Z,0.20
2022-10-16T15:59:37.483Z,0.17
2022-10-16T16:02:05.343Z,0.20
2022-10-16T16:04:43.371Z,0.30
2022-10-16T16:07:12.154Z,0.10
2022-10-16T16:09:40.208Z,0.30
2022-10-16T16:12:09.442Z,0.15
2022-10-16T16:14:43.674Z,0.10
2022-10-16T16:17:11.521Z,0.30
2022-10-16T16:19:39.383Z,0.20
2022-10-16T16:22:09.537Z,0.43
2022-10-16T16:27:39.422Z,0.30
2022-10-16T16:30:18.291Z,0.30
2022-10-16T16:33:03.444Z,0.35
2022-10-16T16:35:50.004Z,0.20
2022-10-16T16:38:19.585Z,0.20
2022-10-16T16:40:56.207Z,0.17
2022-10-16T16:43:27.956Z,0.30
2022-10-16T16:46:10.756Z,0.40
2022-10-16T16:48:39.232Z,0.43
2022-10-16T16:51:16.063Z,0.20
2022-10-16T16:54:13.698Z,0.20
2022-10-16T16:56:56.710Z,0.35
2022-10-16T16:59:28.630Z,0.47
2022-10-16T17:02:03.986Z,0.20
2022-10-16T17:07:28.770Z,0.40
2022-10-16T17:09:57.789Z,0.30
2022-10-16T17:12:32.473Z,0.50
2022-10-16T17:15:14.104Z,0.80
2022-10-16T17:20:52.803Z,0.57
2022-10-16T17:23:22.055Z,0.77
2022-10-16T17:26:03.800Z,0.65
2022-10-16T17:28:44.866Z,0.85
2022-10-16T17:31:17.142Z,0.80
2022-10-16T17:33:48.674Z,0.85
2022-10-16T17:36:16.860Z,0.77
2022-10-16T17:38:48.285Z,0.60
2022-10-16T17:41:18.113Z,0.90
2022-10-16T17:43:49.765Z,0.68
2022-10-16T17:46:21.014Z,0.85
2022-10-16T17:48:50.852Z,0.85
2022-10-16T17:51:23.096Z,1.02
2022-10-16T17:53:56.408Z,1.00
2022-10-16T17:56:25.220Z,0.95
2022-10-16T17:58:59.616Z,0.80
2022-10-16T18:01:31.258Z,0.73
2022-10-16T18:04:09.137Z,1.33
2022-10-16T18:06:37.834Z,0.85
2022-10-16T18:09:06.313Z,0.70
2022-10-16T18:11:35.005Z,1.00
2022-10-16T18:16:46.474Z,0.90
2022-10-16T18:19:14.791Z,0.60
2022-10-16T18:21:45.415Z,0.90
2022-10-16T18:24:13.715Z,0.75
2022-10-16T18:26:41.456Z,0.80
2022-10-16T18:29:18.142Z,0.80
2022-10-16T18:31:48.953Z,0.77
2022-10-16T18:34:27.205Z,0.73
2022-10-16T18:36:57.890Z,0.63
2022-10-16T18:39:25.724Z,0.85
2022-10-16T18:42:00.074Z,0.93
2022-10-16T18:44:29.021Z,0.60
2022-10-16T18:46:59.146Z,0.80
2022-10-16T18:49:30.564Z,0.50
2022-10-16T18:51:58.702Z,0.80
2022-10-16T18:54:26.668Z,0.85
2022-10-16T18:56:55.054Z,0.70
2022-10-16T18:59:23.111Z,0.98
2022-10-16T19:01:52.542Z,1.02
2022-10-16T19:04:23.763Z,1.35
2022-10-16T19:06:53.967Z,1.10
2022-10-16T19:09:23.917Z,1.00
2022-10-16T19:14:36.324Z,1.00
2022-10-16T19:17:04.219Z,1.00
2022-10-16T19:19:39.612Z,1.30
2022-10-16T19:22:28.197Z,0.93
2022-10-16T19:25:04.064Z,0.80
2022-10-16T19:27:32.684Z,0.77
2022-10-16T19:30:00.470Z,0.68
2022-10-16T19:32:28.650Z,0.82
2022-10-16T19:34:58.019Z,0.80
2022-10-16T19:37:39.785Z,0.63
2022-10-16T19:40:08.966Z,0.60
2022-10-16T19:42:38.454Z,0.68
2022-10-16T19:45:07.099Z,0.60
2022-10-16T19:47:37.171Z,0.80
2022-10-16T19:50:09.990Z,0.63
2022-10-16T19:52:38.430Z,0.60
2022-10-16T19:55:12.193Z,0.70
2022-10-16T19:57:40.855Z,0.50
2022-10-16T20:00:10.250Z,0.50
2022-10-16T20:02:40.745Z,0.50
2022-10-16T20:05:12.951Z,0.60
2022-10-16T20:10:27.470Z,0.57
2022-10-16T20:12:55.376Z,0.63
2022-10-16T20:15:23.394Z,0.70
2022-10-16T20:17:51.202Z,0.47
2022-10-16T20:20:23.154Z,0.38
2022-10-16T20:23:04.809Z,0.40
2022-10-16T20:25:36.423Z,0.38
2022-10-16T20:28:08.509Z,0.65
2022-10-16T20:30:37.261Z,0.40
2022-10-16T20:33:08.278Z,0.50
2022-10-16T20:35:42.488Z,0.50
2022-10-16T20:40:43.525Z,0.30
2022-10-16T20:43:14.008Z,0.20
2022-10-16T20:45:42.756Z,0.40
2022-10-16T20:48:12.182Z,0.55
2022-10-16T20:50:42.975Z,0.40
2022-10-16T20:53:11.001Z,0.50
2022-10-16T20:55:39.064Z,0.50
2022-10-16T20:58:07.051Z,0.43
2022-10-16T21:00:37.733Z,0.50
2022-10-16T21:03:05.914Z,0.70
2022-10-16T21:05:34.604Z,0.40
2022-10-16T21:08:04.235Z,0.60
2022-10-16T21:10:32.758Z,0.60
2022-10-16T21:13:00.677Z,0.45
2022-10-16T21:15:28.754Z,0.52
2022-10-16T21:17:56.555Z,0.57
2022-10-16T21:20:24.786Z,0.60
2022-10-16T21:22:52.708Z,0.50
2022-10-16T21:25:29.899Z,0.60
2022-10-16T21:27:57.740Z,0.50
2022-10-16T21:30:25.606Z,0.57
2022-10-16T21:32:53.547Z,0.57
2022-10-16T21:35:21.563Z,0.65
2022-10-16T21:37:49.957Z,0.40
2022-10-16T21:40:27.763Z,0.30
2022-10-16T21:42:57.097Z,0.40
2022-10-16T21:45:24.914Z,0.30
2022-10-16T21:47:52.779Z,0.60
2022-10-16T21:50:20.912Z,0.60
2022-10-16T21:52:57.882Z,0.20
2022-10-16T21:55:37.348Z,0.70
2022-10-16T21:58:06.616Z,0.52
2022-10-16T22:00:34.384Z,0.40
2022-10-16T22:03:02.259Z,0.82
2022-10-16T22:05:30.128Z,0.55
2022-10-16T22:07:57.968Z,0.40
2022-10-16T22:10:29.902Z,0.50
2022-10-16T22:12:57.647Z,0.40
2022-10-16T22:15:26.803Z,0.50
2022-10-16T22:17:54.522Z,0.43
2022-10-16T22:20:22.397Z,0.43
2022-10-16T22:22:50.186Z,0.50
2022-10-16T22:25:18.766Z,0.50
2022-10-16T22:27:46.642Z,0.40
2022-10-16T22:30:14.545Z,0.50
2022-10-16T22:32:44.836Z,0.60
2022-10-16T22:35:12.700Z,0.43
2022-10-16T22:37:40.620Z,0.45
2022-10-16T22:40:10.120Z,0.50
2022-10-16T22:42:37.872Z,0.50
2022-10-16T22:45:09.284Z,0.60
2022-10-16T22:47:37.262Z,0.30
2022-10-16T22:50:07.622Z,0.30
2022-10-16T22:52:36.594Z,0.60
2022-10-16T22:55:14.899Z,0.50
2022-10-16T22:57:43.311Z,0.50
2022-10-16T23:00:13.954Z,0.50
2022-10-16T23:02:41.802Z,0.45
2022-10-16T23:05:13.821Z,0.20
2022-10-16T23:07:46.579Z,0.63
2022-10-16T23:10:14.310Z,0.60
2022-10-16T23:12:42.249Z,0.40
2022-10-16T23:15:16.402Z,0.50
2022-10-16T23:20:28.484Z,0.50
2022-10-16T23:25:26.959Z,0.45
2022-10-16T23:27:55.266Z,0.30
2022-10-16T23:30:32.180Z,0.30
2022-10-16T23:33:01.931Z,0.65
2022-10-16T23:35:31.128Z,0.30
2022-10-16T23:37:59.216Z,0.30
2022-10-16T23:40:40.900Z,0.40
2022-10-16T23:43:08.675Z,0.50
2022-10-16T23:45:38.878Z,0.50
2022-10-16T23:48:12.474Z,0.30
2022-10-16T23:50:41.674Z,0.50
2022-10-16T23:53:10.293Z,0.30
2022-10-16T23:55:38.961Z,0.50
2022-10-16T23:58:09.086Z,0.43
